createdAt,value
2022-09-07T00:01:56.255Z,4.30
2022-09-07T00:04:22.855Z,3.63
2022-09-07T00:06:49.460Z,4.18
2022-09-07T00:09:15.967Z,4.70
2022-09-07T00:11:42.477Z,4.20
2022-09-07T00:14:09.223Z,4.35
2022-09-07T00:16:35.800Z,4.40
2022-09-07T00:19:04.498Z,4.10
2022-09-07T00:21:31.449Z,4.50
2022-09-07T00:23:58.438Z,4.15
2022-09-07T00:26:27.737Z,4.25
2022-09-07T00:28:58.354Z,4.00
2022-09-07T00:31:25.649Z,3.75
2022-09-07T00:33:53.845Z,4.53
2022-09-07T00:36:21.828Z,3.95
2022-09-07T00:38:48.824Z,4.47
2022-09-07T00:41:16.314Z,4.07
2022-09-07T00:43:46.086Z,4.28
2022-09-07T00:46:18.485Z,4.88
2022-09-07T00:49:16.732Z,4.25
2022-09-07T00:51:57.902Z,5.90
2022-09-07T00:54:41.710Z,5.32
2022-09-07T00:57:09.282Z,4.55
2022-09-07T00:59:41.828Z,4.18
2022-09-07T01:02:08.756Z,4.88
2022-09-07T01:04:36.845Z,4.93
2022-09-07T01:07:05.884Z,4.68
2022-09-07T01:09:33.228Z,4.50
2022-09-07T01:12:01.894Z,4.93
2022-09-07T01:14:32.942Z,6.22
2022-09-07T01:17:36.933Z,4.32
2022-09-07T01:20:12.353Z,3.97
2022-09-07T01:23:04.487Z,4.63
2022-09-07T01:25:50.141Z,4.63
2022-09-07T01:28:28.695Z,4.78
2022-09-07T01:30:58.912Z,5.10
2022-09-07T01:33:52.229Z,4.78
2022-09-07T01:36:27.798Z,4.85
2022-09-07T01:38:57.416Z,4.80
2022-09-07T01:41:31.118Z,5.00
2022-09-07T01:44:28.261Z,4.75
2022-09-07T01:47:14.083Z,4.95
2022-09-07T01:49:53.202Z,4.63
2022-09-07T01:52:51.892Z,5.40
2022-09-07T01:55:31.866Z,5.03
2022-09-07T01:58:10.928Z,4.72
2022-09-07T02:00:40.586Z,5.57
2022-09-07T02:03:14.555Z,5.40
2022-09-07T02:06:02.164Z,6.22
2022-09-07T02:08:45.867Z,6.25
2022-09-07T02:11:28.034Z,6.68
2022-09-07T02:13:59.914Z,7.07
2022-09-07T02:16:28.733Z,7.57
2022-09-07T02:19:00.397Z,7.57
2022-09-07T02:21:50.166Z,6.32
2022-09-07T02:24:23.497Z,5.63
2022-09-07T02:26:53.171Z,7.15
2022-09-07T02:29:19.857Z,6.85
2022-09-07T02:31:47.536Z,7.68
2022-09-07T02:34:14.224Z,7.85
2022-09-07T02:36:45.912Z,9.40
2022-09-07T02:39:13.017Z,9.13
2022-09-07T02:41:42.882Z,9.82
2022-09-07T02:44:16.066Z,7.90
2022-09-07T02:47:20.061Z,8.27
2022-09-07T02:50:07.882Z,8.25
2022-09-07T02:52:50.936Z,8.77
2022-09-07T02:55:36.504Z,7.40
2022-09-07T02:58:46.074Z,7.32
2022-09-07T03:01:24.053Z,6.93
2022-09-07T03:04:37.193Z,6.75
2022-09-07T03:07:14.365Z,7.03
2022-09-07T03:09:54.957Z,7.43
2022-09-07T03:12:21.863Z,7.07
2022-09-07T03:14:48.693Z,6.85
2022-09-07T03:17:15.351Z,7.40
2022-09-07T03:19:41.878Z,6.78
2022-09-07T03:22:08.674Z,7.18
2022-09-07T03:24:36.883Z,6.88
2022-09-07T03:27:03.529Z,6.25
2022-09-07T03:29:30.380Z,5.70
2022-09-07T03:31:56.910Z,6.20
2022-09-07T03:34:23.462Z,5.93
2022-09-07T03:36:49.941Z,6.28
2022-09-07T03:39:16.486Z,5.90
2022-09-07T03:41:43.041Z,5.90
2022-09-07T03:44:10.042Z,5.63
2022-09-07T03:46:36.628Z,6.10
2022-09-07T03:49:03.356Z,5.97
2022-09-07T03:51:29.933Z,4.97
2022-09-07T03:53:57.521Z,5.03
2022-09-07T03:56:25.863Z,4.80
2022-09-07T03:58:54.276Z,5.07
2022-09-07T04:01:23.410Z,5.97
2022-09-07T04:03:50.377Z,5.13
2022-09-07T04:06:18.022Z,5.25
2022-09-07T04:08:44.764Z,4.45
2022-09-07T04:11:15.261Z,3.53
2022-09-07T04:13:42.638Z,4.88
2022-09-07T04:16:14.413Z,5.03
2022-09-07T04:18:41.471Z,4.50
2022-09-07T04:21:08.346Z,4.78
2022-09-07T04:23:36.876Z,4.60
2022-09-07T04:26:03.360Z,4.85
2022-09-07T04:28:30.083Z,5.18
2022-09-07T04:31:00.896Z,5.03
2022-09-07T04:33:27.749Z,4.38
2022-09-07T04:35:54.350Z,4.95
2022-09-07T04:38:20.921Z,5.05
2022-09-07T04:40:47.471Z,5.60
2022-09-07T04:43:14.028Z,4.95
2022-09-07T04:45:40.646Z,5.65
2022-09-07T04:48:07.499Z,5.55
2022-09-07T04:50:34.329Z,5.80
2022-09-07T04:53:00.818Z,6.50
2022-09-07T04:55:27.363Z,6.95
2022-09-07T04:57:53.938Z,9.23
2022-09-07T05:00:20.625Z,8.00
2022-09-07T05:02:47.226Z,7.18
2022-09-07T05:05:13.973Z,7.88
2022-09-07T05:07:40.584Z,6.47
2022-09-07T05:10:07.528Z,6.30
2022-09-07T05:12:34.040Z,6.55
2022-09-07T05:15:00.905Z,6.13
2022-09-07T05:17:28.250Z,9.15
2022-09-07T05:19:55.239Z,10.27
2022-09-07T05:22:22.443Z,9.98
2022-09-07T05:24:49.199Z,9.73
2022-09-07T05:27:15.779Z,10.38
2022-09-07T05:32:29.360Z,10.23
2022-09-07T05:34:56.207Z,11.10
2022-09-07T05:37:22.754Z,10.75
2022-09-07T05:39:49.365Z,11.23
2022-09-07T05:42:16.214Z,11.88
2022-09-07T05:47:09.477Z,10.98
2022-09-07T05:49:36.000Z,10.70
2022-09-07T05:52:02.807Z,10.13
2022-09-07T05:54:29.342Z,10.65
2022-09-07T05:56:55.908Z,11.55
2022-09-07T05:59:22.493Z,10.73
2022-09-07T06:01:49.166Z,11.15
2022-09-07T06:04:15.735Z,10.43
2022-09-07T06:06:43.412Z,11.55
2022-09-07T06:09:14.542Z,11.18
2022-09-07T06:11:41.104Z,10.85
2022-09-07T06:14:07.646Z,10.77
2022-09-07T06:16:35.275Z,9.05
2022-09-07T06:19:06.354Z,10.93
2022-09-07T06:21:36.859Z,10.23
2022-09-07T06:24:04.925Z,8.88
2022-09-07T06:26:31.969Z,9.20
2022-09-07T06:28:58.740Z,9.32
2022-09-07T06:31:25.744Z,9.05
2022-09-07T06:33:54.703Z,8.65
2022-09-07T06:36:23.652Z,9.57
2022-09-07T06:38:51.254Z,9.13
2022-09-07T06:44:07.466Z,10.18
2022-09-07T06:49:20.644Z,9.13
2022-09-07T06:51:47.177Z,11.07
2022-09-07T06:57:00.313Z,10.48
2022-09-07T06:59:26.842Z,9.70
2022-09-07T07:01:53.455Z,9.35
2022-09-07T07:04:20.229Z,8.82
2022-09-07T07:06:46.804Z,10.40
2022-09-07T07:09:14.207Z,9.40
2022-09-07T07:11:40.967Z,9.82
2022-09-07T07:14:07.523Z,10.15
2022-09-07T07:16:36.212Z,9.57
2022-09-07T07:19:02.819Z,9.40
2022-09-07T07:21:42.866Z,10.35
2022-09-07T07:24:15.940Z,8.98
2022-09-07T07:26:48.534Z,7.57
2022-09-07T07:29:18.553Z,7.68
2022-09-07T07:31:47.066Z,7.00
2022-09-07T07:34:13.879Z,7.97
2022-09-07T07:36:41.587Z,8.07
2022-09-07T07:39:08.493Z,8.25
2022-09-07T07:41:56.485Z,8.48
2022-09-07T07:44:25.430Z,6.43
2022-09-07T07:46:52.088Z,7.35
2022-09-07T07:49:19.140Z,6.53
2022-09-07T07:54:36.877Z,5.03
2022-09-07T07:57:05.284Z,5.40
2022-09-07T07:59:31.920Z,5.00
2022-09-07T08:02:04.408Z,5.20
2022-09-07T08:04:32.836Z,4.82
2022-09-07T08:06:59.400Z,5.03
2022-09-07T08:09:26.146Z,3.70
2022-09-07T08:11:52.824Z,5.10
2022-09-07T08:14:19.348Z,3.90
2022-09-07T08:16:46.213Z,3.45
2022-09-07T08:19:12.764Z,3.53
2022-09-07T08:21:39.233Z,3.45
2022-09-07T08:24:05.841Z,3.17
2022-09-07T08:26:32.752Z,3.35
2022-09-07T08:28:59.242Z,3.17
2022-09-07T08:31:25.886Z,3.58
2022-09-07T08:33:52.438Z,3.80
2022-09-07T08:36:21.003Z,3.67
2022-09-07T08:38:48.620Z,3.67
2022-09-07T08:41:34.777Z,3.95
2022-09-07T08:44:28.003Z,4.03
2022-09-07T08:47:13.172Z,3.28
2022-09-07T08:49:51.751Z,3.17
2022-09-07T08:52:27.606Z,3.15
2022-09-07T08:55:05.128Z,3.70
2022-09-07T08:57:35.511Z,3.75
2022-09-07T09:00:14.407Z,3.55
2022-09-07T09:02:44.387Z,3.65
2022-09-07T09:05:40.525Z,3.00
2022-09-07T09:08:12.261Z,3.55
2022-09-07T09:10:41.759Z,2.70
2022-09-07T09:13:22.472Z,2.55
2022-09-07T09:16:13.925Z,3.20
2022-09-07T09:19:19.707Z,3.00
2022-09-07T09:21:46.484Z,2.83
2022-09-07T09:24:19.382Z,3.15
2022-09-07T09:26:53.231Z,2.97
2022-09-07T09:29:22.763Z,2.38
2022-09-07T09:31:49.478Z,2.75
2022-09-07T09:34:19.132Z,2.50
2022-09-07T09:36:56.635Z,2.53
2022-09-07T09:39:33.189Z,2.55
2022-09-07T09:42:11.904Z,2.88
2022-09-07T09:44:39.197Z,2.85
2022-09-07T09:49:54.422Z,3.28
2022-09-07T09:52:34.779Z,2.53
2022-09-07T10:03:59.384Z,2.20
2022-09-07T10:06:28.277Z,2.60
2022-09-07T10:09:01.912Z,2.38
2022-09-07T10:14:42.610Z,2.50
2022-09-07T10:17:19.327Z,1.95
2022-09-07T10:19:45.992Z,1.90
2022-09-07T10:22:24.787Z,2.28
2022-09-07T10:24:52.290Z,2.00
2022-09-07T10:27:32.198Z,2.03
2022-09-07T10:29:59.402Z,2.30
2022-09-07T10:32:47.923Z,2.03
2022-09-07T10:35:17.246Z,1.80
2022-09-07T10:38:03.962Z,1.83
2022-09-07T10:40:40.657Z,1.60
2022-09-07T10:43:22.086Z,1.73
2022-09-07T10:49:38.499Z,1.80
2022-09-07T10:52:25.879Z,1.83
2022-09-07T10:55:23.852Z,1.88
2022-09-07T10:58:08.045Z,1.92
2022-09-07T11:00:47.737Z,1.75
2022-09-07T11:03:26.281Z,1.92
2022-09-07T11:06:00.961Z,2.05
2022-09-07T11:09:17.684Z,1.80
2022-09-07T11:12:05.715Z,1.60
2022-09-07T11:14:52.888Z,1.90
2022-09-07T11:17:24.001Z,1.33
2022-09-07T11:20:12.469Z,1.67
2022-09-07T11:22:44.729Z,1.10
2022-09-07T11:25:42.169Z,1.52
2022-09-07T11:28:17.577Z,1.92
2022-09-07T11:30:49.985Z,1.20
2022-09-07T11:33:25.616Z,1.17
2022-09-07T11:36:11.967Z,2.00
2022-09-07T11:38:48.499Z,1.90
2022-09-07T11:41:31.881Z,1.95
2022-09-07T11:44:24.818Z,1.23
2022-09-07T11:46:54.728Z,1.15
2022-09-07T11:49:28.757Z,1.17
2022-09-07T11:52:09.598Z,1.45
2022-09-07T11:54:48.889Z,1.05
2022-09-07T11:57:15.382Z,1.00
2022-09-07T12:00:01.966Z,0.70
2022-09-07T12:03:00.267Z,1.48
2022-09-07T12:05:55.522Z,0.95
2022-09-07T12:08:48.846Z,1.42
2022-09-07T12:11:39.721Z,0.90
2022-09-07T12:14:40.813Z,0.68
2022-09-07T12:17:24.861Z,1.00
2022-09-07T12:20:09.372Z,0.70
2022-09-07T12:22:36.120Z,1.10
2022-09-07T12:25:10.329Z,0.80
2022-09-07T12:27:38.321Z,0.70
2022-09-07T12:30:04.980Z,0.80
2022-09-07T12:33:01.800Z,1.20
2022-09-07T12:35:28.390Z,0.70
2022-09-07T12:37:59.264Z,0.80
2022-09-07T12:40:28.811Z,0.60
2022-09-07T12:43:16.155Z,0.80
2022-09-07T12:45:42.605Z,0.70
2022-09-07T12:48:15.381Z,0.47
2022-09-07T12:51:10.283Z,0.47
2022-09-07T12:54:01.695Z,0.45
2022-09-07T12:56:41.960Z,0.77
2022-09-07T12:59:33.490Z,0.55
2022-09-07T13:02:03.127Z,0.90
2022-09-07T13:04:46.488Z,0.70
2022-09-07T13:07:38.053Z,0.52
2022-09-07T13:10:23.512Z,0.90
2022-09-07T13:12:53.171Z,1.05
2022-09-07T13:15:41.483Z,0.80
2022-09-07T13:18:27.087Z,0.77
2022-09-07T13:21:08.918Z,0.93
2022-09-07T13:23:41.076Z,1.27
2022-09-07T13:26:10.990Z,0.45
2022-09-07T13:28:40.429Z,0.90
2022-09-07T13:31:28.876Z,0.75
2022-09-07T13:33:57.236Z,0.60
2022-09-07T13:36:32.256Z,0.60
2022-09-07T13:38:59.302Z,0.68
2022-09-07T13:41:32.082Z,1.00
2022-09-07T13:44:01.392Z,0.90
2022-09-07T13:46:35.217Z,0.50
2022-09-07T13:49:41.150Z,0.60
2022-09-07T13:52:16.382Z,0.77
2022-09-07T13:54:45.555Z,0.80
2022-09-07T13:57:14.701Z,1.27
2022-09-07T13:59:42.779Z,0.57
2022-09-07T14:02:32.643Z,0.70
2022-09-07T14:05:03.001Z,0.50
2022-09-07T14:07:30.898Z,0.80
2022-09-07T14:10:06.325Z,0.70
2022-09-07T14:12:44.297Z,0.60
2022-09-07T14:15:21.987Z,0.80
2022-09-07T14:17:52.027Z,1.08
2022-09-07T14:20:19.192Z,0.75
2022-09-07T14:22:49.416Z,0.50
2022-09-07T14:25:19.742Z,0.80
2022-09-07T14:27:47.914Z,0.50
2022-09-07T14:30:23.936Z,0.90
2022-09-07T14:32:53.479Z,0.70
2022-09-07T14:35:23.026Z,1.30
2022-09-07T14:37:50.794Z,0.70
2022-09-07T14:40:25.953Z,0.60
2022-09-07T14:42:55.934Z,0.50
2022-09-07T14:45:22.377Z,0.70
2022-09-07T14:47:52.275Z,0.63
2022-09-07T14:50:21.647Z,0.50
2022-09-07T14:53:34.319Z,0.75
2022-09-07T14:55:39.769Z,1.15
2022-09-07T14:58:15.604Z,0.55
2022-09-07T15:00:43.614Z,0.80
2022-09-07T15:03:32.131Z,1.13
2022-09-07T15:06:01.353Z,0.73
2022-09-07T15:08:41.513Z,0.60
2022-09-07T15:11:35.676Z,0.65
2022-09-07T15:14:08.652Z,0.50
2022-09-07T15:16:39.420Z,0.63
2022-09-07T15:19:15.227Z,0.70
2022-09-07T15:21:43.494Z,0.70
2022-09-07T15:24:10.768Z,0.70
2022-09-07T15:29:29.093Z,0.50
2022-09-07T15:32:03.328Z,0.70
2022-09-07T15:34:31.614Z,0.73
2022-09-07T15:37:00.882Z,0.85
2022-09-07T15:39:30.351Z,0.68
2022-09-07T15:41:58.165Z,0.50
2022-09-07T15:44:28.407Z,0.70
2022-09-07T15:49:49.282Z,0.55
2022-09-07T15:52:17.142Z,0.65
2022-09-07T15:54:44.129Z,1.02
2022-09-07T15:59:57.610Z,0.50
2022-09-07T16:05:10.862Z,0.55
2022-09-07T16:10:24.576Z,0.52
2022-09-07T16:15:45.890Z,0.70
2022-09-07T16:18:18.052Z,0.50
2022-09-07T16:20:45.511Z,0.50
2022-09-07T16:23:15.235Z,1.10
2022-09-07T16:25:54.309Z,0.60
2022-09-07T16:28:20.945Z,0.90
2022-09-07T16:30:48.183Z,0.65
2022-09-07T16:33:14.945Z,0.60
2022-09-07T16:35:41.494Z,0.70
2022-09-07T16:40:54.899Z,0.50
2022-09-07T16:43:21.676Z,0.60
2022-09-07T16:46:03.928Z,0.60
2022-09-07T16:48:32.415Z,0.75
2022-09-07T16:51:02.309Z,0.70
2022-09-07T16:53:31.578Z,0.90
2022-09-07T16:56:04.719Z,0.55
2022-09-07T16:58:37.775Z,0.70
2022-09-07T17:01:06.670Z,0.50
2022-09-07T17:03:33.942Z,0.70
2022-09-07T17:06:01.158Z,0.82
2022-09-07T17:08:28.232Z,1.17
2022-09-07T17:11:09.888Z,0.70
2022-09-07T17:13:38.149Z,0.80
2022-09-07T17:16:08.041Z,0.57
2022-09-07T17:21:21.978Z,0.80
2022-09-07T17:23:54.880Z,0.50
2022-09-07T17:26:26.046Z,0.52
2022-09-07T17:28:54.989Z,0.70
2022-09-07T17:34:13.416Z,0.73
2022-09-07T17:36:43.274Z,0.65
2022-09-07T17:39:18.861Z,0.60
2022-09-07T17:41:47.836Z,0.50
2022-09-07T17:44:14.609Z,0.75
2022-09-07T17:46:41.175Z,0.68
2022-09-07T17:49:12.481Z,0.88
2022-09-07T17:51:39.528Z,1.08
2022-09-07T17:54:11.702Z,0.90
2022-09-07T17:56:41.730Z,0.85
2022-09-07T18:01:56.341Z,0.80
2022-09-07T18:04:23.444Z,0.70
2022-09-07T18:06:50.456Z,0.70
2022-09-07T18:09:19.988Z,0.70
2022-09-07T18:11:48.658Z,1.05
2022-09-07T18:14:21.167Z,0.70
2022-09-07T18:16:50.994Z,1.00
2022-09-07T18:19:21.400Z,0.70
2022-09-07T18:21:48.855Z,0.47
2022-09-07T18:24:21.165Z,0.73
2022-09-07T18:26:51.300Z,0.55
2022-09-07T18:29:36.851Z,0.70
2022-09-07T18:32:09.882Z,0.85
2022-09-07T18:34:40.768Z,0.85
2022-09-07T18:37:08.380Z,0.90
2022-09-07T18:39:35.906Z,1.13
2022-09-07T18:42:10.468Z,1.83
2022-09-07T18:47:37.720Z,0.90
2022-09-07T18:50:05.250Z,0.65
2022-09-07T18:52:52.079Z,1.23
2022-09-07T18:55:39.494Z,0.93
2022-09-07T18:58:12.670Z,0.55
2022-09-07T19:01:07.140Z,1.00
2022-09-07T19:04:01.622Z,0.60
2022-09-07T19:06:28.235Z,1.15
2022-09-07T19:08:56.307Z,1.00
2022-09-07T19:12:28.027Z,0.73
2022-09-07T19:14:54.733Z,0.85
2022-09-07T19:17:21.277Z,0.82
2022-09-07T19:19:48.738Z,0.70
2022-09-07T19:22:15.373Z,0.70
2022-09-07T19:24:41.906Z,1.00
2022-09-07T19:27:08.437Z,0.80
2022-09-07T19:29:34.982Z,0.60
2022-09-07T19:32:04.651Z,0.82
2022-09-07T19:34:35.865Z,0.70
2022-09-07T19:37:04.065Z,0.77
2022-09-07T19:39:30.709Z,0.75
2022-09-07T19:41:57.366Z,0.80
2022-09-07T19:44:24.160Z,0.98
2022-09-07T19:46:50.838Z,0.85
2022-09-07T19:49:17.855Z,0.73
2022-09-07T19:51:44.654Z,0.90
2022-09-07T19:54:12.075Z,0.80
2022-09-07T19:56:40.725Z,0.95
2022-09-07T19:59:07.630Z,0.85
2022-09-07T20:01:35.196Z,0.80
2022-09-07T20:04:08.008Z,0.85
2022-09-07T20:06:34.940Z,0.77
2022-09-07T20:09:01.948Z,0.90
2022-09-07T20:11:29.215Z,0.82
2022-09-07T20:13:57.148Z,1.02
2022-09-07T20:16:24.819Z,1.00
2022-09-07T20:18:51.478Z,0.85
2022-09-07T20:21:23.345Z,0.70
2022-09-07T20:23:50.725Z,1.10
2022-09-07T20:26:19.887Z,0.90
2022-09-07T20:28:46.888Z,1.05
2022-09-07T20:31:16.023Z,0.60
2022-09-07T20:33:44.503Z,0.80
2022-09-07T20:36:13.743Z,0.77
2022-09-07T20:38:56.519Z,0.77
2022-09-07T20:41:28.913Z,0.60
2022-09-07T20:43:58.375Z,0.77
2022-09-07T20:46:25.386Z,1.00
2022-09-07T20:48:52.234Z,0.50
2022-09-07T20:51:21.310Z,0.80
2022-09-07T20:53:49.469Z,0.80
2022-09-07T20:56:23.775Z,0.80
2022-09-07T20:58:58.042Z,0.63
2022-09-07T21:01:24.790Z,0.60
2022-09-07T21:03:53.544Z,0.90
2022-09-07T21:06:21.550Z,0.70
2022-09-07T21:08:49.102Z,0.70
2022-09-07T21:11:17.321Z,0.88
2022-09-07T21:13:44.570Z,0.75
2022-09-07T21:16:13.891Z,0.57
2022-09-07T21:18:41.367Z,0.80
2022-09-07T21:21:23.169Z,1.52
2022-09-07T21:23:55.577Z,0.60
2022-09-07T21:26:22.128Z,1.02
2022-09-07T21:28:57.538Z,1.00
2022-09-07T21:31:24.825Z,0.80
2022-09-07T21:33:55.902Z,0.65
2022-09-07T21:36:22.461Z,0.80
2022-09-07T21:38:48.996Z,0.88
2022-09-07T21:41:17.866Z,0.60
2022-09-07T21:43:44.333Z,0.55
2022-09-07T21:46:17.247Z,0.60
2022-09-07T21:48:47.081Z,0.75
2022-09-07T21:51:14.837Z,0.70
2022-09-07T21:53:42.016Z,0.80
2022-09-07T21:56:11.935Z,1.13
2022-09-07T21:58:40.017Z,0.57
2022-09-07T22:01:17.009Z,0.60
2022-09-07T22:03:45.710Z,0.80
2022-09-07T22:06:12.651Z,0.70
2022-09-07T22:08:41.437Z,1.10
2022-09-07T22:11:11.076Z,0.75
2022-09-07T22:13:38.425Z,0.68
2022-09-07T22:16:05.484Z,0.50
2022-09-07T22:18:32.481Z,0.80
2022-09-07T22:21:09.846Z,0.57
2022-09-07T22:23:39.008Z,0.95
2022-09-07T22:26:06.298Z,0.65
2022-09-07T22:28:32.936Z,0.70
2022-09-07T22:31:17.626Z,0.98
2022-09-07T22:33:45.223Z,0.60
2022-09-07T22:36:20.894Z,1.15
2022-09-07T22:38:49.684Z,1.40
2022-09-07T22:41:18.458Z,0.90
2022-09-07T22:43:45.849Z,0.88
2022-09-07T22:46:13.838Z,0.70
2022-09-07T22:48:41.446Z,0.65
2022-09-07T22:51:09.287Z,0.73
2022-09-07T22:53:39.118Z,1.27
2022-09-07T22:56:11.309Z,0.80
2022-09-07T22:58:38.630Z,0.75
2022-09-07T23:01:06.406Z,0.90
2022-09-07T23:03:34.987Z,1.05
2022-09-07T23:06:01.978Z,0.82
2022-09-07T23:08:29.173Z,1.00
2022-09-07T23:10:56.125Z,0.65
2022-09-07T23:13:22.622Z,1.00
2022-09-07T23:15:49.781Z,1.25
2022-09-07T23:18:18.266Z,1.05
2022-09-07T23:20:45.258Z,0.82
2022-09-07T23:23:13.400Z,0.85
2022-09-07T23:25:41.561Z,1.38
2022-09-07T23:28:12.327Z,0.88
2022-09-07T23:30:42.332Z,0.80
2022-09-07T23:33:08.867Z,0.82
2022-09-07T23:35:35.355Z,0.80
2022-09-07T23:38:02.060Z,0.80
2022-09-07T23:40:30.485Z,1.08
2022-09-07T23:42:57.305Z,1.15
2022-09-07T23:45:24.427Z,0.85
2022-09-07T23:47:50.937Z,0.82
2022-09-07T23:50:17.935Z,1.17
2022-09-07T23:52:44.442Z,0.60
2022-09-07T23:55:11.614Z,0.73
2022-09-07T23:57:38.920Z,0.60
